sensor_id;sensor_type;location;lat;lon;timestamp;P1;durP1;ratioP1;P2;durP2;ratioP2
11092;SDS011;5600;50.864;6.102;2023-03-03T00:01:32;64.57;;;14.60;;
11092;SDS011;5600;50.864;6.102;2023-03-03T00:04:33;74.17;;;15.07;;
11092;SDS011;5600;50.864;6.102;2023-03-03T00:07:34;68.03;;;14.90;;
11092;SDS011;5600;50.864;6.102;2023-03-03T00:10:36;86.10;;;15.67;;
11092;SDS011;5600;50.864;6.102;2023-03-03T00:13:40;75.60;;;15.30;;
11092;SDS011;5600;50.864;6.102;2023-03-03T00:16:46;76.30;;;14.60;;
11092;SDS011;5600;50.864;6.102;2023-03-03T00:19:48;149.87;;;18.47;;
11092;SDS011;5600;50.864;6.102;2023-03-03T00:22:49;74.40;;;15.80;;
11092;SDS011;5600;50.864;6.102;2023-03-03T00:25:52;59.97;;;13.50;;
11092;SDS011;5600;50.864;6.102;2023-03-03T00:28:53;64.13;;;14.73;;
11092;SDS011;5600;50.864;6.102;2023-03-03T00:31:59;70.13;;;16.37;;
11092;SDS011;5600;50.864;6.102;2023-03-03T00:35:18;68.43;;;15.10;;
11092;SDS011;5600;50.864;6.102;2023-03-03T00:38:23;71.20;;;16.13;;
11092;SDS011;5600;50.864;6.102;2023-03-03T00:41:25;70.60;;;16.73;;
11092;SDS011;5600;50.864;6.102;2023-03-03T00:44:38;77.57;;;16.13;;
11092;SDS011;5600;50.864;6.102;2023-03-03T00:47:55;55.23;;;14.83;;
11092;SDS011;5600;50.864;6.102;2023-03-03T00:50:57;74.13;;;16.93;;
11092;SDS011;5600;50.864;6.102;2023-03-03T00:53:59;59.93;;;15.13;;
11092;SDS011;5600;50.864;6.102;2023-03-03T00:57:00;90.47;;;17.23;;
11092;SDS011;5600;50.864;6.102;2023-03-03T01:00:01;76.47;;;18.00;;
11092;SDS011;5600;50.864;6.102;2023-03-03T01:03:06;74.07;;;17.03;;
11092;SDS011;5600;50.864;6.102;2023-03-03T01:06:09;61.37;;;16.50;;
11092;SDS011;5600;50.864;6.102;2023-03-03T01:09:10;68.93;;;15.30;;
11092;SDS011;5600;50.864;6.102;2023-03-03T01:12:11;73.53;;;16.47;;
11092;SDS011;5600;50.864;6.102;2023-03-03T01:15:13;60.30;;;15.47;;
11092;SDS011;5600;50.864;6.102;2023-03-03T01:18:14;61.27;;;14.93;;
11092;SDS011;5600;50.864;6.102;2023-03-03T01:21:15;69.57;;;15.53;;
11092;SDS011;5600;50.864;6.102;2023-03-03T01:24:16;63.70;;;16.87;;
11092;SDS011;5600;50.864;6.102;2023-03-03T01:27:18;76.30;;;18.70;;
11092;SDS011;5600;50.864;6.102;2023-03-03T01:30:18;66.80;;;16.33;;
11092;SDS011;5600;50.864;6.102;2023-03-03T01:33:19;58.37;;;15.97;;
11092;SDS011;5600;50.864;6.102;2023-03-03T01:36:24;65.37;;;16.83;;
11092;SDS011;5600;50.864;6.102;2023-03-03T01:39:25;65.87;;;16.87;;
11092;SDS011;5600;50.864;6.102;2023-03-03T01:42:26;59.27;;;16.10;;
11092;SDS011;5600;50.864;6.102;2023-03-03T01:48:48;63.90;;;16.33;;
11092;SDS011;5600;50.864;6.102;2023-03-03T01:51:53;71.37;;;16.93;;
11092;SDS011;5600;50.864;6.102;2023-03-03T01:54:58;71.73;;;17.93;;
11092;SDS011;5600;50.864;6.102;2023-03-03T01:58:15;74.57;;;20.87;;
11092;SDS011;5600;50.864;6.102;2023-03-03T02:01:21;80.60;;;24.57;;
11092;SDS011;5600;50.864;6.102;2023-03-03T02:04:25;83.63;;;25.07;;
11092;SDS011;5600;50.864;6.102;2023-03-03T02:07:26;91.10;;;26.37;;
11092;SDS011;5600;50.864;6.102;2023-03-03T02:10:28;96.80;;;26.47;;
11092;SDS011;5600;50.864;6.102;2023-03-03T02:13:30;93.27;;;26.80;;
11092;SDS011;5600;50.864;6.102;2023-03-03T02:16:31;117.27;;;30.20;;
11092;SDS011;5600;50.864;6.102;2023-03-03T02:19:53;93.50;;;26.90;;
11092;SDS011;5600;50.864;6.102;2023-03-03T02:23:17;97.50;;;27.63;;
11092;SDS011;5600;50.864;6.102;2023-03-03T02:26:26;98.50;;;27.17;;
11092;SDS011;5600;50.864;6.102;2023-03-03T02:29:33;99.67;;;28.73;;
11092;SDS011;5600;50.864;6.102;2023-03-03T02:32:34;105.50;;;28.17;;
11092;SDS011;5600;50.864;6.102;2023-03-03T02:35:36;120.13;;;29.70;;
11092;SDS011;5600;50.864;6.102;2023-03-03T02:45:02;118.90;;;34.70;;
11092;SDS011;5600;50.864;6.102;2023-03-03T02:48:03;102.17;;;33.30;;
11092;SDS011;5600;50.864;6.102;2023-03-03T02:51:04;123.03;;;34.60;;
11092;SDS011;5600;50.864;6.102;2023-03-03T02:54:05;116.27;;;34.70;;
11092;SDS011;5600;50.864;6.102;2023-03-03T02:57:07;122.20;;;34.63;;
11092;SDS011;5600;50.864;6.102;2023-03-03T03:00:08;139.13;;;36.53;;
11092;SDS011;5600;50.864;6.102;2023-03-03T03:03:09;143.33;;;36.00;;
11092;SDS011;5600;50.864;6.102;2023-03-03T03:06:12;118.60;;;34.73;;
11092;SDS011;5600;50.864;6.102;2023-03-03T03:09:14;126.63;;;36.93;;
11092;SDS011;5600;50.864;6.102;2023-03-03T03:12:16;132.23;;;37.13;;
11092;SDS011;5600;50.864;6.102;2023-03-03T03:15:18;137.97;;;38.70;;
11092;SDS011;5600;50.864;6.102;2023-03-03T03:18:19;132.53;;;39.10;;
11092;SDS011;5600;50.864;6.102;2023-03-03T03:21:21;134.17;;;37.97;;
11092;SDS011;5600;50.864;6.102;2023-03-03T03:24:22;135.40;;;39.33;;
11092;SDS011;5600;50.864;6.102;2023-03-03T03:27:29;139.07;;;39.17;;
11092;SDS011;5600;50.864;6.102;2023-03-03T03:30:29;134.97;;;38.50;;
11092;SDS011;5600;50.864;6.102;2023-03-03T03:33:30;135.53;;;38.13;;
11092;SDS011;5600;50.864;6.102;2023-03-03T03:36:31;148.30;;;40.27;;
11092;SDS011;5600;50.864;6.102;2023-03-03T03:39:32;148.67;;;40.50;;
11092;SDS011;5600;50.864;6.102;2023-03-03T03:42:33;189.00;;;41.87;;
11092;SDS011;5600;50.864;6.102;2023-03-03T03:45:33;126.57;;;39.03;;
11092;SDS011;5600;50.864;6.102;2023-03-03T03:48:35;143.03;;;38.33;;
11092;SDS011;5600;50.864;6.102;2023-03-03T03:51:38;150.23;;;40.37;;
11092;SDS011;5600;50.864;6.102;2023-03-03T03:54:41;160.40;;;40.90;;
11092;SDS011;5600;50.864;6.102;2023-03-03T03:57:42;141.80;;;39.37;;
11092;SDS011;5600;50.864;6.102;2023-03-03T04:00:44;142.33;;;41.07;;
11092;SDS011;5600;50.864;6.102;2023-03-03T04:03:45;138.23;;;38.43;;
11092;SDS011;5600;50.864;6.102;2023-03-03T04:06:51;164.50;;;41.23;;
11092;SDS011;5600;50.864;6.102;2023-03-03T04:09:52;144.07;;;40.57;;
11092;SDS011;5600;50.864;6.102;2023-03-03T04:12:53;149.73;;;40.20;;
11092;SDS011;5600;50.864;6.102;2023-03-03T04:15:54;149.47;;;40.53;;
11092;SDS011;5600;50.864;6.102;2023-03-03T04:18:55;149.50;;;40.27;;
11092;SDS011;5600;50.864;6.102;2023-03-03T04:21:56;142.87;;;40.20;;
11092;SDS011;5600;50.864;6.102;2023-03-03T04:24:56;146.03;;;40.50;;
11092;SDS011;5600;50.864;6.102;2023-03-03T04:27:57;151.43;;;40.17;;
11092;SDS011;5600;50.864;6.102;2023-03-03T04:30:59;132.67;;;39.50;;
11092;SDS011;5600;50.864;6.102;2023-03-03T04:34:00;137.93;;;40.33;;
11092;SDS011;5600;50.864;6.102;2023-03-03T04:37:02;162.83;;;41.37;;
11092;SDS011;5600;50.864;6.102;2023-03-03T04:40:04;159.93;;;42.57;;
11092;SDS011;5600;50.864;6.102;2023-03-03T04:43:06;139.40;;;40.20;;
11092;SDS011;5600;50.864;6.102;2023-03-03T04:46:07;148.87;;;41.23;;
11092;SDS011;5600;50.864;6.102;2023-03-03T04:49:09;147.70;;;39.90;;
11092;SDS011;5600;50.864;6.102;2023-03-03T04:52:10;138.43;;;38.90;;
11092;SDS011;5600;50.864;6.102;2023-03-03T04:55:12;157.93;;;40.27;;
11092;SDS011;5600;50.864;6.102;2023-03-03T04:58:14;134.80;;;39.27;;
11092;SDS011;5600;50.864;6.102;2023-03-03T05:01:15;141.47;;;39.47;;
11092;SDS011;5600;50.864;6.102;2023-03-03T05:04:16;148.40;;;40.40;;
11092;SDS011;5600;50.864;6.102;2023-03-03T05:07:16;150.70;;;39.37;;
11092;SDS011;5600;50.864;6.102;2023-03-03T05:10:19;128.23;;;38.00;;
11092;SDS011;5600;50.864;6.102;2023-03-03T05:13:20;164.97;;;40.37;;
11092;SDS011;5600;50.864;6.102;2023-03-03T05:16:21;131.83;;;38.37;;
11092;SDS011;5600;50.864;6.102;2023-03-03T05:19:22;144.63;;;41.07;;
11092;SDS011;5600;50.864;6.102;2023-03-03T05:22:23;137.37;;;38.50;;
11092;SDS011;5600;50.864;6.102;2023-03-03T05:25:24;133.60;;;38.47;;
11092;SDS011;5600;50.864;6.102;2023-03-03T05:28:25;147.07;;;37.47;;
11092;SDS011;5600;50.864;6.102;2023-03-03T05:31:26;140.93;;;38.23;;
11092;SDS011;5600;50.864;6.102;2023-03-03T05:34:26;125.73;;;36.37;;
11092;SDS011;5600;50.864;6.102;2023-03-03T05:37:27;120.83;;;36.03;;
11092;SDS011;5600;50.864;6.102;2023-03-03T05:40:28;112.30;;;36.67;;
11092;SDS011;5600;50.864;6.102;2023-03-03T05:43:28;135.20;;;36.83;;
11092;SDS011;5600;50.864;6.102;2023-03-03T05:46:29;143.50;;;37.13;;
11092;SDS011;5600;50.864;6.102;2023-03-03T05:49:30;127.57;;;37.37;;
11092;SDS011;5600;50.864;6.102;2023-03-03T05:52:31;128.50;;;37.87;;
11092;SDS011;5600;50.864;6.102;2023-03-03T05:55:32;148.23;;;37.37;;
11092;SDS011;5600;50.864;6.102;2023-03-03T05:58:32;127.07;;;34.63;;
11092;SDS011;5600;50.864;6.102;2023-03-03T06:01:33;133.13;;;35.63;;
11092;SDS011;5600;50.864;6.102;2023-03-03T06:04:34;144.50;;;38.70;;
11092;SDS011;5600;50.864;6.102;2023-03-03T06:07:35;107.03;;;35.50;;
11092;SDS011;5600;50.864;6.102;2023-03-03T06:10:35;138.20;;;38.40;;
11092;SDS011;5600;50.864;6.102;2023-03-03T06:13:39;129.10;;;36.47;;
11092;SDS011;5600;50.864;6.102;2023-03-03T06:16:41;136.97;;;36.37;;
11092;SDS011;5600;50.864;6.102;2023-03-03T06:19:42;158.07;;;38.73;;
11092;SDS011;5600;50.864;6.102;2023-03-03T06:22:43;150.20;;;39.93;;
11092;SDS011;5600;50.864;6.102;2023-03-03T06:25:43;130.97;;;36.63;;
11092;SDS011;5600;50.864;6.102;2023-03-03T06:28:44;159.47;;;37.47;;
11092;SDS011;5600;50.864;6.102;2023-03-03T06:31:45;142.80;;;38.43;;
11092;SDS011;5600;50.864;6.102;2023-03-03T06:34:45;148.17;;;37.83;;
11092;SDS011;5600;50.864;6.102;2023-03-03T06:37:46;170.77;;;39.53;;
11092;SDS011;5600;50.864;6.102;2023-03-03T06:40:49;147.03;;;36.73;;
11092;SDS011;5600;50.864;6.102;2023-03-03T06:43:50;183.00;;;40.87;;
11092;SDS011;5600;50.864;6.102;2023-03-03T06:46:51;166.17;;;40.93;;
11092;SDS011;5600;50.864;6.102;2023-03-03T06:49:52;157.57;;;37.53;;
11092;SDS011;5600;50.864;6.102;2023-03-03T06:52:58;150.67;;;38.07;;
11092;SDS011;5600;50.864;6.102;2023-03-03T06:56:04;148.77;;;38.53;;
11092;SDS011;5600;50.864;6.102;2023-03-03T06:59:10;142.13;;;38.07;;
11092;SDS011;5600;50.864;6.102;2023-03-03T07:02:16;133.87;;;38.73;;
11092;SDS011;5600;50.864;6.102;2023-03-03T07:05:17;138.90;;;39.30;;
11092;SDS011;5600;50.864;6.102;2023-03-03T07:08:19;146.50;;;41.07;;
11092;SDS011;5600;50.864;6.102;2023-03-03T07:11:22;139.17;;;40.13;;
11092;SDS011;5600;50.864;6.102;2023-03-03T07:14:23;134.23;;;42.33;;
11092;SDS011;5600;50.864;6.102;2023-03-03T07:17:24;178.00;;;42.37;;
11092;SDS011;5600;50.864;6.102;2023-03-03T07:20:32;151.77;;;42.43;;
11092;SDS011;5600;50.864;6.102;2023-03-03T07:23:37;134.40;;;40.70;;
11092;SDS011;5600;50.864;6.102;2023-03-03T07:26:41;146.93;;;40.70;;
11092;SDS011;5600;50.864;6.102;2023-03-03T07:29:42;146.40;;;41.90;;
11092;SDS011;5600;50.864;6.102;2023-03-03T07:32:44;129.87;;;38.00;;
11092;SDS011;5600;50.864;6.102;2023-03-03T07:35:46;158.93;;;41.77;;
11092;SDS011;5600;50.864;6.102;2023-03-03T07:38:49;148.07;;;40.23;;
11092;SDS011;5600;50.864;6.102;2023-03-03T07:42:01;124.40;;;41.00;;
11092;SDS011;5600;50.864;6.102;2023-03-03T07:45:20;128.20;;;36.03;;
11092;SDS011;5600;50.864;6.102;2023-03-03T07:48:25;149.20;;;40.43;;
11092;SDS011;5600;50.864;6.102;2023-03-03T07:51:36;144.20;;;39.63;;
11092;SDS011;5600;50.864;6.102;2023-03-03T07:54:41;162.60;;;40.97;;
11092;SDS011;5600;50.864;6.102;2023-03-03T07:57:44;152.93;;;40.07;;
11092;SDS011;5600;50.864;6.102;2023-03-03T08:04:28;137.17;;;38.30;;
11092;SDS011;5600;50.864;6.102;2023-03-03T08:07:38;130.10;;;38.33;;
11092;SDS011;5600;50.864;6.102;2023-03-03T08:10:44;138.17;;;40.87;;
11092;SDS011;5600;50.864;6.102;2023-03-03T08:13:50;125.47;;;37.43;;
11092;SDS011;5600;50.864;6.102;2023-03-03T08:16:51;149.97;;;37.00;;
11092;SDS011;5600;50.864;6.102;2023-03-03T08:19:52;121.97;;;36.40;;
11092;SDS011;5600;50.864;6.102;2023-03-03T08:22:54;139.43;;;38.33;;
11092;SDS011;5600;50.864;6.102;2023-03-03T08:25:54;128.67;;;36.10;;
11092;SDS011;5600;50.864;6.102;2023-03-03T08:28:55;110.00;;;35.83;;
11092;SDS011;5600;50.864;6.102;2023-03-03T08:31:56;147.97;;;38.63;;
11092;SDS011;5600;50.864;6.102;2023-03-03T08:34:57;142.23;;;39.03;;
11092;SDS011;5600;50.864;6.102;2023-03-03T08:37:58;136.33;;;37.40;;
11092;SDS011;5600;50.864;6.102;2023-03-03T08:41:00;145.87;;;38.20;;
11092;SDS011;5600;50.864;6.102;2023-03-03T08:44:01;130.30;;;36.83;;
11092;SDS011;5600;50.864;6.102;2023-03-03T08:47:02;151.57;;;39.50;;
11092;SDS011;5600;50.864;6.102;2023-03-03T08:50:03;121.30;;;36.83;;
11092;SDS011;5600;50.864;6.102;2023-03-03T08:53:05;123.70;;;35.13;;
11092;SDS011;5600;50.864;6.102;2023-03-03T08:56:09;116.40;;;34.37;;
11092;SDS011;5600;50.864;6.102;2023-03-03T08:59:10;114.97;;;35.80;;
11092;SDS011;5600;50.864;6.102;2023-03-03T09:02:13;108.30;;;34.97;;
11092;SDS011;5600;50.864;6.102;2023-03-03T09:05:15;133.37;;;37.80;;
11092;SDS011;5600;50.864;6.102;2023-03-03T09:08:17;131.20;;;35.97;;
11092;SDS011;5600;50.864;6.102;2023-03-03T09:11:21;131.63;;;36.93;;
11092;SDS011;5600;50.864;6.102;2023-03-03T09:14:26;145.50;;;37.87;;
11092;SDS011;5600;50.864;6.102;2023-03-03T09:17:30;113.20;;;34.30;;
11092;SDS011;5600;50.864;6.102;2023-03-03T09:20:37;121.90;;;33.37;;
11092;SDS011;5600;50.864;6.102;2023-03-03T09:23:40;106.23;;;34.70;;
11092;SDS011;5600;50.864;6.102;2023-03-03T09:26:45;108.50;;;33.40;;
11092;SDS011;5600;50.864;6.102;2023-03-03T09:29:47;108.20;;;33.77;;
11092;SDS011;5600;50.864;6.102;2023-03-03T09:32:48;208.60;;;39.40;;
11092;SDS011;5600;50.864;6.102;2023-03-03T09:35:57;148.20;;;35.20;;
11092;SDS011;5600;50.864;6.102;2023-03-03T09:39:20;113.97;;;33.37;;
11092;SDS011;5600;50.864;6.102;2023-03-03T09:42:39;107.17;;;32.87;;
11092;SDS011;5600;50.864;6.102;2023-03-03T09:52:20;118.63;;;34.33;;
11092;SDS011;5600;50.864;6.102;2023-03-03T09:59:25;129.27;;;33.67;;
11092;SDS011;5600;50.864;6.102;2023-03-03T10:02:41;118.33;;;33.73;;
11092;SDS011;5600;50.864;6.102;2023-03-03T10:12:44;126.73;;;34.20;;
11092;SDS011;5600;50.864;6.102;2023-03-03T10:19:39;114.70;;;32.00;;
11092;SDS011;5600;50.864;6.102;2023-03-03T10:22:50;113.10;;;31.50;;
11092;SDS011;5600;50.864;6.102;2023-03-03T10:29:10;110.07;;;31.33;;
11092;SDS011;5600;50.864;6.102;2023-03-03T10:32:32;134.90;;;32.90;;
11092;SDS011;5600;50.864;6.102;2023-03-03T10:49:39;202.47;;;37.87;;
11092;SDS011;5600;50.864;6.102;2023-03-03T10:56:19;137.50;;;33.97;;
11092;SDS011;5600;50.864;6.102;2023-03-03T11:03:00;142.70;;;36.20;;
11092;SDS011;5600;50.864;6.102;2023-03-03T11:27:54;152.80;;;36.17;;
11092;SDS011;5600;50.864;6.102;2023-03-03T11:34:42;128.83;;;34.90;;
11092;SDS011;5600;50.864;6.102;2023-03-03T11:44:28;124.50;;;33.47;;
11092;SDS011;5600;50.864;6.102;2023-03-03T11:51:14;129.30;;;34.13;;
11092;SDS011;5600;50.864;6.102;2023-03-03T11:54:43;134.57;;;33.33;;
11092;SDS011;5600;50.864;6.102;2023-03-03T12:04:26;127.60;;;33.57;;
11092;SDS011;5600;50.864;6.102;2023-03-03T12:07:46;228.90;;;39.67;;
11092;SDS011;5600;50.864;6.102;2023-03-03T12:11:08;137.43;;;33.57;;
11092;SDS011;5600;50.864;6.102;2023-03-03T12:14:33;133.40;;;35.57;;
11092;SDS011;5600;50.864;6.102;2023-03-03T12:24:38;116.23;;;33.43;;
11092;SDS011;5600;50.864;6.102;2023-03-03T12:27:54;149.30;;;34.97;;
11092;SDS011;5600;50.864;6.102;2023-03-03T12:41:36;134.07;;;37.13;;
11092;SDS011;5600;50.864;6.102;2023-03-03T12:48:27;140.23;;;35.83;;
11092;SDS011;5600;50.864;6.102;2023-03-03T12:51:47;127.37;;;37.80;;
11092;SDS011;5600;50.864;6.102;2023-03-03T12:55:29;134.03;;;36.43;;
11092;SDS011;5600;50.864;6.102;2023-03-03T12:58:56;127.27;;;35.37;;
11092;SDS011;5600;50.864;6.102;2023-03-03T13:05:46;154.77;;;39.87;;
11092;SDS011;5600;50.864;6.102;2023-03-03T13:15:38;131.37;;;37.83;;
11092;SDS011;5600;50.864;6.102;2023-03-03T13:18:59;116.10;;;38.00;;
11092;SDS011;5600;50.864;6.102;2023-03-03T13:22:12;153.70;;;39.83;;
11092;SDS011;5600;50.864;6.102;2023-03-03T13:32:21;198.43;;;36.63;;
11092;SDS011;5600;50.864;6.102;2023-03-03T13:35:31;209.27;;;37.63;;
11092;SDS011;5600;50.864;6.102;2023-03-03T13:38:48;186.10;;;36.90;;
11092;SDS011;5600;50.864;6.102;2023-03-03T13:42:16;182.63;;;36.60;;
11092;SDS011;5600;50.864;6.102;2023-03-03T13:45:29;180.27;;;35.40;;
11092;SDS011;5600;50.864;6.102;2023-03-03T13:48:57;175.20;;;36.97;;
11092;SDS011;5600;50.864;6.102;2023-03-03T13:52:28;182.77;;;36.40;;
11092;SDS011;5600;50.864;6.102;2023-03-03T13:55:39;160.17;;;34.10;;
11092;SDS011;5600;50.864;6.102;2023-03-03T13:59:20;124.93;;;32.23;;
11092;SDS011;5600;50.864;6.102;2023-03-03T14:06:07;126.70;;;31.20;;
11092;SDS011;5600;50.864;6.102;2023-03-03T14:09:34;160.47;;;31.20;;
11092;SDS011;5600;50.864;6.102;2023-03-03T14:13:15;169.23;;;31.40;;
11092;SDS011;5600;50.864;6.102;2023-03-03T14:26:50;118.97;;;28.77;;
11092;SDS011;5600;50.864;6.102;2023-03-03T14:29:53;102.40;;;26.43;;
11092;SDS011;5600;50.864;6.102;2023-03-03T14:36:10;94.17;;;22.50;;
11092;SDS011;5600;50.864;6.102;2023-03-03T14:42:36;110.07;;;26.43;;
11092;SDS011;5600;50.864;6.102;2023-03-03T14:45:50;136.57;;;28.10;;
11092;SDS011;5600;50.864;6.102;2023-03-03T14:48:56;120.00;;;24.67;;
11092;SDS011;5600;50.864;6.102;2023-03-03T14:55:54;121.90;;;22.90;;
11092;SDS011;5600;50.864;6.102;2023-03-03T14:58:39;92.73;;;21.57;;
11092;SDS011;5600;50.864;6.102;2023-03-03T15:01:41;105.43;;;21.33;;
11092;SDS011;5600;50.864;6.102;2023-03-03T15:04:45;106.60;;;20.13;;
11092;SDS011;5600;50.864;6.102;2023-03-03T15:07:49;92.07;;;20.10;;
11092;SDS011;5600;50.864;6.102;2023-03-03T15:10:53;83.43;;;20.10;;
11092;SDS011;5600;50.864;6.102;2023-03-03T15:14:03;80.13;;;19.43;;
11092;SDS011;5600;50.864;6.102;2023-03-03T15:17:25;102.50;;;19.80;;
11092;SDS011;5600;50.864;6.102;2023-03-03T15:20:51;87.30;;;19.10;;
11092;SDS011;5600;50.864;6.102;2023-03-03T15:27:20;100.90;;;18.73;;
11092;SDS011;5600;50.864;6.102;2023-03-03T15:30:32;73.93;;;16.23;;
11092;SDS011;5600;50.864;6.102;2023-03-03T15:41:22;68.67;;;16.13;;
11092;SDS011;5600;50.864;6.102;2023-03-03T15:51:21;68.83;;;15.20;;
11092;SDS011;5600;50.864;6.102;2023-03-03T15:54:48;63.43;;;15.47;;
11092;SDS011;5600;50.864;6.102;2023-03-03T16:01:29;84.07;;;15.33;;
11092;SDS011;5600;50.864;6.102;2023-03-03T16:04:35;109.50;;;17.03;;
11092;SDS011;5600;50.864;6.102;2023-03-03T16:11:12;81.47;;;15.77;;
11092;SDS011;5600;50.864;6.102;2023-03-03T16:14:36;93.40;;;16.17;;
11092;SDS011;5600;50.864;6.102;2023-03-03T16:18:14;102.00;;;17.10;;
11092;SDS011;5600;50.864;6.102;2023-03-03T16:24:57;73.90;;;14.97;;
11092;SDS011;5600;50.864;6.102;2023-03-03T16:28:08;68.40;;;14.47;;
11092;SDS011;5600;50.864;6.102;2023-03-03T16:31:33;71.20;;;14.97;;
11092;SDS011;5600;50.864;6.102;2023-03-03T16:38:05;80.43;;;15.33;;
11092;SDS011;5600;50.864;6.102;2023-03-03T16:44:44;53.40;;;14.03;;
11092;SDS011;5600;50.864;6.102;2023-03-03T17:01:11;68.00;;;15.97;;
11092;SDS011;5600;50.864;6.102;2023-03-03T17:04:42;91.20;;;16.07;;
11092;SDS011;5600;50.864;6.102;2023-03-03T17:07:55;66.17;;;16.57;;
11092;SDS011;5600;50.864;6.102;2023-03-03T17:11:19;72.97;;;16.17;;
11092;SDS011;5600;50.864;6.102;2023-03-03T17:14:42;70.97;;;15.90;;
11092;SDS011;5600;50.864;6.102;2023-03-03T17:17:53;61.43;;;13.93;;
11092;SDS011;5600;50.864;6.102;2023-03-03T17:21:13;73.10;;;13.80;;
11092;SDS011;5600;50.864;6.102;2023-03-03T17:24:34;68.10;;;15.00;;
11092;SDS011;5600;50.864;6.102;2023-03-03T17:31:04;69.73;;;14.40;;
11092;SDS011;5600;50.864;6.102;2023-03-03T17:37:45;84.30;;;14.80;;
11092;SDS011;5600;50.864;6.102;2023-03-03T17:44:36;66.53;;;14.07;;
11092;SDS011;5600;50.864;6.102;2023-03-03T17:48:11;60.73;;;13.73;;
11092;SDS011;5600;50.864;6.102;2023-03-03T17:51:38;66.40;;;13.93;;
11092;SDS011;5600;50.864;6.102;2023-03-03T18:01:53;70.53;;;14.07;;
11092;SDS011;5600;50.864;6.102;2023-03-03T18:05:02;72.97;;;14.50;;
11092;SDS011;5600;50.864;6.102;2023-03-03T18:08:32;73.73;;;14.87;;
11092;SDS011;5600;50.864;6.102;2023-03-03T18:11:52;64.40;;;13.90;;
11092;SDS011;5600;50.864;6.102;2023-03-03T18:15:08;83.87;;;15.33;;
11092;SDS011;5600;50.864;6.102;2023-03-03T18:19:03;79.33;;;15.60;;
11092;SDS011;5600;50.864;6.102;2023-03-03T18:22:05;73.93;;;14.30;;
11092;SDS011;5600;50.864;6.102;2023-03-03T18:25:14;63.73;;;13.63;;
11092;SDS011;5600;50.864;6.102;2023-03-03T18:28:19;65.63;;;13.67;;
11092;SDS011;5600;50.864;6.102;2023-03-03T18:31:22;77.33;;;14.70;;
11092;SDS011;5600;50.864;6.102;2023-03-03T18:34:40;69.73;;;13.43;;
11092;SDS011;5600;50.864;6.102;2023-03-03T18:37:41;67.10;;;13.87;;
11092;SDS011;5600;50.864;6.102;2023-03-03T18:51:07;61.83;;;13.70;;
11092;SDS011;5600;50.864;6.102;2023-03-03T18:57:13;82.40;;;14.50;;
11092;SDS011;5600;50.864;6.102;2023-03-03T19:00:23;109.00;;;16.27;;
11092;SDS011;5600;50.864;6.102;2023-03-03T19:03:30;91.07;;;16.90;;
11092;SDS011;5600;50.864;6.102;2023-03-03T19:12:52;66.73;;;14.60;;
11092;SDS011;5600;50.864;6.102;2023-03-03T19:15:54;64.67;;;15.50;;
11092;SDS011;5600;50.864;6.102;2023-03-03T19:18:59;64.43;;;13.93;;
11092;SDS011;5600;50.864;6.102;2023-03-03T19:22:17;74.47;;;14.37;;
11092;SDS011;5600;50.864;6.102;2023-03-03T19:25:24;68.57;;;15.67;;
11092;SDS011;5600;50.864;6.102;2023-03-03T19:31:43;66.33;;;15.17;;
11092;SDS011;5600;50.864;6.102;2023-03-03T19:35:23;83.13;;;15.47;;
11092;SDS011;5600;50.864;6.102;2023-03-03T19:55:52;90.27;;;18.37;;
11092;SDS011;5600;50.864;6.102;2023-03-03T19:59:24;83.37;;;16.43;;
11092;SDS011;5600;50.864;6.102;2023-03-03T20:09:51;90.50;;;20.20;;
11092;SDS011;5600;50.864;6.102;2023-03-03T20:16:34;82.27;;;18.37;;
11092;SDS011;5600;50.864;6.102;2023-03-03T20:19:49;80.17;;;19.17;;
11092;SDS011;5600;50.864;6.102;2023-03-03T20:23:06;85.17;;;18.93;;
11092;SDS011;5600;50.864;6.102;2023-03-03T20:35:58;102.13;;;22.17;;
11092;SDS011;5600;50.864;6.102;2023-03-03T20:42:43;87.53;;;21.60;;
11092;SDS011;5600;50.864;6.102;2023-03-03T20:46:18;83.37;;;20.83;;
11092;SDS011;5600;50.864;6.102;2023-03-03T20:55:55;87.20;;;23.20;;
11092;SDS011;5600;50.864;6.102;2023-03-03T21:02:26;96.07;;;22.00;;
11092;SDS011;5600;50.864;6.102;2023-03-03T21:06:35;91.57;;;21.87;;
11092;SDS011;5600;50.864;6.102;2023-03-03T21:09:22;83.93;;;21.37;;
11092;SDS011;5600;50.864;6.102;2023-03-03T21:12:33;107.40;;;23.60;;
11092;SDS011;5600;50.864;6.102;2023-03-03T21:15:34;86.17;;;23.50;;
11092;SDS011;5600;50.864;6.102;2023-03-03T21:18:34;95.37;;;23.83;;
11092;SDS011;5600;50.864;6.102;2023-03-03T21:21:37;70.67;;;21.13;;
11092;SDS011;5600;50.864;6.102;2023-03-03T21:24:49;78.57;;;20.77;;
11092;SDS011;5600;50.864;6.102;2023-03-03T21:27:51;82.77;;;22.77;;
11092;SDS011;5600;50.864;6.102;2023-03-03T21:30:59;83.30;;;22.83;;
11092;SDS011;5600;50.864;6.102;2023-03-03T21:34:18;70.60;;;21.57;;
11092;SDS011;5600;50.864;6.102;2023-03-03T21:37:41;64.93;;;21.40;;
11092;SDS011;5600;50.864;6.102;2023-03-03T21:40:41;75.27;;;22.23;;
11092;SDS011;5600;50.864;6.102;2023-03-03T21:43:48;106.20;;;23.83;;
11092;SDS011;5600;50.864;6.102;2023-03-03T21:46:50;71.37;;;22.53;;
11092;SDS011;5600;50.864;6.102;2023-03-03T21:49:51;89.73;;;23.10;;
11092;SDS011;5600;50.864;6.102;2023-03-03T21:52:52;86.07;;;22.97;;
11092;SDS011;5600;50.864;6.102;2023-03-03T21:55:55;81.63;;;21.43;;
11092;SDS011;5600;50.864;6.102;2023-03-03T21:58:55;71.00;;;20.97;;
11092;SDS011;5600;50.864;6.102;2023-03-03T22:01:56;76.97;;;21.27;;
11092;SDS011;5600;50.864;6.102;2023-03-03T22:04:57;77.63;;;22.17;;
11092;SDS011;5600;50.864;6.102;2023-03-03T22:07:58;74.40;;;20.40;;
11092;SDS011;5600;50.864;6.102;2023-03-03T22:10:58;72.63;;;20.47;;
11092;SDS011;5600;50.864;6.102;2023-03-03T22:13:59;91.20;;;22.90;;
11092;SDS011;5600;50.864;6.102;2023-03-03T22:17:00;146.27;;;30.57;;
11092;SDS011;5600;50.864;6.102;2023-03-03T22:20:02;95.00;;;23.87;;
11092;SDS011;5600;50.864;6.102;2023-03-03T22:23:03;75.40;;;22.93;;
11092;SDS011;5600;50.864;6.102;2023-03-03T22:26:03;111.00;;;23.80;;
11092;SDS011;5600;50.864;6.102;2023-03-03T22:29:04;82.53;;;22.20;;
11092;SDS011;5600;50.864;6.102;2023-03-03T22:32:05;100.33;;;24.87;;
11092;SDS011;5600;50.864;6.102;2023-03-03T22:35:06;95.73;;;22.80;;
11092;SDS011;5600;50.864;6.102;2023-03-03T22:38:07;85.50;;;23.17;;
11092;SDS011;5600;50.864;6.102;2023-03-03T22:41:08;99.07;;;21.90;;
11092;SDS011;5600;50.864;6.102;2023-03-03T22:44:08;96.43;;;22.50;;
11092;SDS011;5600;50.864;6.102;2023-03-03T22:47:09;116.13;;;23.10;;
11092;SDS011;5600;50.864;6.102;2023-03-03T22:50:10;75.73;;;22.23;;
11092;SDS011;5600;50.864;6.102;2023-03-03T22:53:11;79.47;;;21.20;;
11092;SDS011;5600;50.864;6.102;2023-03-03T22:56:12;87.27;;;22.03;;
11092;SDS011;5600;50.864;6.102;2023-03-03T22:59:12;83.90;;;21.07;;
11092;SDS011;5600;50.864;6.102;2023-03-03T23:02:13;79.97;;;22.10;;
11092;SDS011;5600;50.864;6.102;2023-03-03T23:05:14;77.00;;;21.50;;
11092;SDS011;5600;50.864;6.102;2023-03-03T23:08:15;90.70;;;23.47;;
11092;SDS011;5600;50.864;6.102;2023-03-03T23:11:17;87.20;;;25.20;;
11092;SDS011;5600;50.864;6.102;2023-03-03T23:14:18;89.20;;;24.93;;
11092;SDS011;5600;50.864;6.102;2023-03-03T23:17:19;93.27;;;25.97;;
11092;SDS011;5600;50.864;6.102;2023-03-03T23:20:21;101.37;;;27.00;;
11092;SDS011;5600;50.864;6.102;2023-03-03T23:23:24;98.73;;;26.17;;